Portada
METAR-TAF:

METAR-TAF

Aeroports :

Homestead, Florida, Estats Units d'Amèrica

latitud: 25-29N, longitud: 080-23W, altitud: 2 m

Observació

L'informe es va fer fa 26 minuts, a les 20:17 UTC
Vent 12 kt del Nord/Nord-Oest amb ràfegues de 22 kt
Temperatura 19°C
Humitat 40%
Pressió 1021 hPa
Visibilitat: 16.1 km
Cel clar

METAR: KHST 282017Z AUTO 34012G22KT 10SM CLR 19/05 A3016 RMK AO2 WSHFT 10 SLP217

Hora: 15:43 (20:43 UTC)

Pronòstic

L'informe es va fer fa 43 minuts, a les 20:00 UTC
Pronòstic vàlid del 28 a les 20 UTC al 01 a les 02 UTC
Vent 12 kt del Nord/Nord-Oest amb ràfegues de 20 kt
Visibilitat 10 km o més
Escasses núvols a una alçada de 5000 ft
Escasses núvols a una alçada de 15000 ft
Evolucionant progressivament
l' 28 a les 23 UTC al 28 a les 24 UTC
Vent 6 kt del Nord-Oest
Visibilitat 10 km o més
Escasses núvols a una alçada de 15000 ft

TAF: KHST 282000Z 2820/0102 33012G20KT 9999 FEW050 FEW150 QNH3014INS BECMG 2823/2824 31006KT 9999 FEW150 QNH3017INS TX19/2820Z TN08/2911Z

Observacions i pronòstics meteorològics de més de 4000 aeroports (METAR i TAF).

Les estacions disponibles són els punts grocs i vermells al mapa.

Posi el ratolí al punt desitjat per veure el nom de l'estació.

Feu clic per veure les observacions i els pronòstics meteorològics.

Per canviar el mapa: feu clic els botons verds amb una creu de color negre per apropar; al botó verd amb un guió per allunyar la imatge; o en les fletxes verdes per a mapes adjacents.


METAR-TAF: